Time;durP1;ratioP1;P1;durP2;ratioP2;P2;SDS_P1;SDS_P2;PMS_P1;PMS_P2;Temp;Humidity;BMP_temperature;BMP_pressure;BME280_temperature;BME280_humidity;BME280_pressure;Samples;Min_cycle;Max_cycle;Signal;HPM_P1;HPM_P2
2022/02/22 00:00:14;;;;;;;2.45;0.77;;;;;;;-141.50;100.00;63355.56;4950684;29;20309;-77
2022/02/22 00:02:43;;;;;;;7.45;1.20;;;;;;;-141.50;100.00;63355.56;4953644;29;20056;-78
2022/02/22 00:05:11;;;;;;;9.45;1.58;;;;;;;-141.50;100.00;63355.56;4958109;28;20031;-80
2022/02/22 00:07:39;;;;;;;11.48;1.73;;;;;;;-141.50;100.00;63355.56;4957084;28;20061;-77
2022/02/22 00:10:08;;;;;;;10.55;1.33;;;;;;;-141.50;100.00;63355.56;4951381;29;20060;-78
2022/02/22 00:12:36;;;;;;;9.20;1.27;;;;;;;-141.50;100.00;63355.56;4953942;29;20051;-79
2022/02/22 00:15:04;;;;;;;8.05;1.00;;;;;;;-141.50;100.00;63355.56;4951118;29;20067;-77
2022/02/22 00:17:33;;;;;;;9.57;1.33;;;;;;;-141.50;100.00;63355.56;4953855;29;20162;-78
2022/02/22 00:20:01;;;;;;;8.00;1.13;;;;;;;-141.50;100.00;63355.56;4954453;29;20111;-78
2022/02/22 00:22:28;;;;;;;7.72;1.52;;;;;;;-141.50;100.00;63355.56;4954946;29;20062;-78
2022/02/22 00:24:55;;;;;;;7.32;1.55;;;;;;;-141.50;100.00;63355.56;4952715;29;20047;-77
2022/02/22 00:27:22;;;;;;;9.48;1.20;;;;;;;-141.50;100.00;63355.56;4951790;29;20051;-77
2022/02/22 00:29:49;;;;;;;8.30;1.27;;;;;;;-141.50;100.00;63355.56;4951746;29;20059;-76
2022/02/22 00:32:15;;;;;;;9.82;1.20;;;;;;;-141.50;100.00;63355.56;4951019;29;20087;-78
2022/02/22 00:34:42;;;;;;;8.48;1.90;;;;;;;-141.50;100.00;63355.56;4951291;29;20123;-78
2022/02/22 00:37:09;;;;;;;10.30;1.38;;;;;;;-141.50;100.00;63355.56;4952619;29;20098;-78
2022/02/22 00:39:36;;;;;;;9.80;1.48;;;;;;;-141.50;100.00;63355.56;4949886;29;20054;-79
2022/02/22 00:42:03;;;;;;;4.40;1.00;;;;;;;-141.50;100.00;63355.56;4952152;29;20142;-79
2022/02/22 00:44:30;;;;;;;8.02;1.10;;;;;;;-141.50;100.00;63355.56;4950264;29;20055;-78
2022/02/22 00:46:57;;;;;;;6.75;1.33;;;;;;;-141.50;100.00;63355.56;4952036;29;20056;-78
2022/02/22 00:49:23;;;;;;;7.22;1.00;;;;;;;-141.50;100.00;63355.56;4951604;29;20075;-77
2022/02/22 00:51:52;;;;;;;6.78;1.10;;;;;;;-141.50;100.00;63355.56;4953219;29;20058;-77
2022/02/22 00:54:18;;;;;;;8.30;1.48;;;;;;;-141.50;100.00;63355.56;4950352;29;20051;-78
2022/02/22 00:56:45;;;;;;;7.43;1.08;;;;;;;-141.50;100.00;63355.56;4949092;29;20083;-78
2022/02/22 00:59:12;;;;;;;5.07;0.90;;;;;;;-141.50;100.00;63355.56;4951993;29;20051;-78
2022/02/22 01:01:39;;;;;;;6.88;1.05;;;;;;;-141.50;100.00;63355.56;4937334;29;20052;-78
2022/02/22 01:04:05;;;;;;;5.78;0.90;;;;;;;-141.50;100.00;63355.56;4926657;29;20079;-78
2022/02/22 01:06:32;;;;;;;5.68;1.23;;;;;;;-141.50;100.00;63355.56;4927174;29;20052;-78
2022/02/22 01:08:59;;;;;;;3.22;0.95;;;;;;;-141.50;100.00;63355.56;4925813;29;20060;-77
2022/02/22 01:11:28;;;;;;;2.45;0.90;;;;;;;-141.50;100.00;63355.56;4928200;29;20058;-78
2022/02/22 01:13:57;;;;;;;2.45;0.63;;;;;;;-141.50;100.00;63355.56;4933691;29;20120;-80
2022/02/22 01:16:24;;;;;;;4.97;1.20;;;;;;;-141.50;100.00;63355.56;4934622;29;20044;-78
2022/02/22 01:18:51;;;;;;;4.90;1.25;;;;;;;-141.50;100.00;63355.56;4933700;29;20036;-78
2022/02/22 01:21:18;;;;;;;2.80;0.68;;;;;;;-141.50;100.00;63355.56;4933608;29;20120;-79
2022/02/22 01:23:44;;;;;;;3.97;0.80;;;;;;;-141.50;100.00;63355.56;4933328;29;20147;-77
2022/02/22 01:26:11;;;;;;;7.20;0.90;;;;;;;-141.50;100.00;63355.56;4931932;29;20043;-77
2022/02/22 01:28:38;;;;;;;4.70;1.00;;;;;;;-141.50;100.00;63355.56;4931584;29;20128;-77
2022/02/22 01:31:05;;;;;;;6.50;0.95;;;;;;;-141.50;100.00;63355.56;4933688;29;20115;-79
2022/02/22 01:33:32;;;;;;;7.50;0.70;;;;;;;-141.50;100.00;63355.56;4934785;29;20052;-79
2022/02/22 01:35:59;;;;;;;8.48;0.82;;;;;;;-141.50;100.00;63355.56;4932543;29;20124;-78
2022/02/22 01:38:25;;;;;;;4.68;0.73;;;;;;;-141.50;100.00;63355.56;4929265;29;20059;-78
2022/02/22 01:40:52;;;;;;;5.57;0.85;;;;;;;-141.50;100.00;63355.56;4929595;29;20056;-79
2022/02/22 01:43:20;;;;;;;4.80;0.65;;;;;;;-141.50;100.00;63355.56;4933928;29;20044;-78
2022/02/22 01:45:47;;;;;;;8.27;0.90;;;;;;;-141.50;100.00;63355.56;4933140;29;20048;-78
2022/02/22 01:48:13;;;;;;;6.80;0.80;;;;;;;-141.50;100.00;63355.56;4936559;29;20056;-77
2022/02/22 01:50:40;;;;;;;6.35;0.90;;;;;;;-141.50;100.00;63355.56;4935427;29;20044;-78
2022/02/22 01:53:09;;;;;;;9.00;0.90;;;;;;;-141.50;100.00;63355.56;4934784;29;20086;-79
2022/02/22 01:55:38;;;;;;;6.47;1.02;;;;;;;-141.50;100.00;63355.56;4935097;29;20044;-79
2022/02/22 01:58:05;;;;;;;6.90;1.25;;;;;;;-141.50;100.00;63355.56;4936216;29;20052;-81
2022/02/22 02:00:31;;;;;;;5.03;0.90;;;;;;;-141.50;100.00;63355.56;4935385;29;20107;-78
2022/02/22 02:02:59;;;;;;;8.02;0.90;;;;;;;-141.50;100.00;63355.56;4935106;29;20170;-78
2022/02/22 02:05:26;;;;;;;7.65;1.10;;;;;;;-141.50;100.00;63355.56;4936497;29;20036;-78
2022/02/22 02:07:53;;;;;;;4.28;0.70;;;;;;;-141.50;100.00;63355.56;4935064;29;20116;-80
2022/02/22 02:10:20;;;;;;;8.73;0.80;;;;;;;-141.50;100.00;63355.56;4933776;29;20100;-78
2022/02/22 02:12:46;;;;;;;9.70;1.15;;;;;;;-141.50;100.00;63355.56;4934463;29;20156;-80
2022/02/22 02:15:14;;;;;;;19.45;1.05;;;;;;;-141.50;100.00;63355.56;4933819;29;20112;-79
2022/02/22 02:17:41;;;;;;;6.40;1.00;;;;;;;-141.50;100.00;63355.56;4936127;29;20071;-79
2022/02/22 02:20:09;;;;;;;8.10;1.02;;;;;;;-141.50;100.00;63355.56;4933591;29;20052;-78
2022/02/22 02:22:37;;;;;;;8.70;0.93;;;;;;;-141.50;100.00;63355.56;4932674;29;20048;-79
2022/02/22 02:25:05;;;;;;;10.13;1.20;;;;;;;-141.50;100.00;63355.56;4928031;29;20044;-78
2022/02/22 02:27:33;;;;;;;11.48;1.00;;;;;;;-141.50;100.00;63355.56;4931888;29;20111;-78
2022/02/22 02:30:00;;;;;;;5.47;0.90;;;;;;;-141.50;100.00;63355.56;4929879;29;20341;-79
2022/02/22 02:32:27;;;;;;;7.32;1.05;;;;;;;-141.50;100.00;63355.56;4932537;29;20112;-79
2022/02/22 02:34:55;;;;;;;11.70;1.17;;;;;;;-141.50;100.00;63355.56;4931723;29;20044;-78
2022/02/22 02:37:22;;;;;;;9.90;1.40;;;;;;;-141.50;100.00;63355.56;4931555;29;20063;-80
2022/02/22 02:39:49;;;;;;;10.75;1.17;;;;;;;-141.50;100.00;63355.56;4930285;29;20060;-77
2022/02/22 02:42:17;;;;;;;12.80;1.45;;;;;;;-141.50;100.00;63355.56;4929200;29;20107;-78
2022/02/22 02:44:46;;;;;;;11.38;1.50;;;;;;;-141.50;100.00;63355.56;4928050;29;20048;-79
2022/02/22 02:47:14;;;;;;;7.60;1.23;;;;;;;-141.50;100.00;63355.56;4927035;29;20062;-78
2022/02/22 02:49:42;;;;;;;10.52;1.50;;;;;;;-141.50;100.00;63355.56;4929454;29;20066;-77
2022/02/22 02:52:09;;;;;;;8.30;1.20;;;;;;;-141.50;100.00;63355.56;4925309;29;20115;-79
2022/02/22 02:54:37;;;;;;;9.68;1.45;;;;;;;-141.50;100.00;63355.56;4920318;29;20044;-79
2022/02/22 02:57:04;;;;;;;8.63;1.30;;;;;;;-141.50;100.00;63355.56;4926860;29;20056;-79
2022/02/22 02:59:31;;;;;;;13.30;1.77;;;;;;;-141.50;100.00;63355.56;4925626;29;20416;-79
2022/02/22 03:01:58;;;;;;;11.07;1.85;;;;;;;-141.50;100.00;63355.56;4928126;29;20129;-78
2022/02/22 03:04:27;;;;;;;5.75;1.35;;;;;;;-141.50;100.00;63355.56;4928668;29;20465;-78
2022/02/22 03:06:56;;;;;;;8.88;1.63;;;;;;;-141.50;100.00;63355.56;4928936;29;20067;-78
2022/02/22 03:09:23;;;;;;;13.25;1.88;;;;;;;-141.50;100.00;63355.56;4926988;29;20075;-77
2022/02/22 03:11:50;;;;;;;14.95;1.80;;;;;;;-141.50;100.00;63355.56;4927171;29;20128;-80
2022/02/22 03:14:18;;;;;;;12.10;2.47;;;;;;;-141.50;100.00;63355.56;4930265;29;20332;-80
2022/02/22 03:16:44;;;;;;;13.52;2.00;;;;;;;-141.50;100.00;63355.56;4932275;29;20365;-78
2022/02/22 03:19:12;;;;;;;12.05;1.90;;;;;;;-141.50;100.00;63355.56;4918746;29;20040;-81
2022/02/22 03:21:38;;;;;;;12.55;3.03;;;;;;;-141.50;100.00;63355.56;4934241;29;20048;-81
2022/02/22 03:24:06;;;;;;;13.73;1.55;;;;;;;-141.50;100.00;63355.56;4936438;29;20169;-81
2022/02/22 03:26:33;;;;;;;12.00;1.48;;;;;;;-141.50;100.00;63355.56;4933531;29;20056;-81
2022/02/22 03:29:00;;;;;;;8.70;1.58;;;;;;;-141.50;100.00;63355.56;4931008;29;20082;-80
2022/02/22 03:31:28;;;;;;;8.25;1.50;;;;;;;-141.50;100.00;63355.56;4929957;29;20144;-80
2022/02/22 03:33:57;;;;;;;13.38;1.60;;;;;;;-141.50;100.00;63355.56;4931913;29;20136;-78
2022/02/22 03:36:27;;;;;;;17.27;1.77;;;;;;;-141.50;100.00;63355.56;4931154;29;20094;-78
2022/02/22 03:38:54;;;;;;;15.45;1.70;;;;;;;-141.50;100.00;63355.56;4932396;29;20048;-81
2022/02/22 03:41:22;;;;;;;16.88;2.08;;;;;;;-141.50;100.00;63355.56;4933325;29;20171;-82
2022/02/22 03:43:49;;;;;;;9.48;1.23;;;;;;;-141.50;100.00;63355.56;4933434;29;20129;-81
2022/02/22 03:46:16;;;;;;;18.77;2.42;;;;;;;-141.50;100.00;63355.56;4935481;29;20040;-79
2022/02/22 03:48:43;;;;;;;9.57;2.05;;;;;;;-141.50;100.00;63355.56;4935653;29;20047;-79
2022/02/22 03:51:10;;;;;;;13.93;1.70;;;;;;;-141.50;100.00;63355.56;4931604;29;20052;-77
2022/02/22 03:53:36;;;;;;;16.75;1.98;;;;;;;-141.50;100.00;63355.56;4932728;29;20072;-79
2022/02/22 03:56:03;;;;;;;18.25;2.03;;;;;;;-141.50;100.00;63355.56;4933031;29;20051;-79
2022/02/22 03:58:30;;;;;;;19.65;1.67;;;;;;;-141.50;100.00;63355.56;4932486;29;20064;-80
2022/02/22 04:00:57;;;;;;;22.15;2.08;;;;;;;-141.50;100.00;63355.56;4931495;29;20056;-78
2022/02/22 04:03:24;;;;;;;15.10;1.48;;;;;;;-141.50;100.00;63355.56;4933338;29;20044;-80
2022/02/22 04:05:51;;;;;;;23.83;2.05;;;;;;;-141.50;100.00;63355.56;4932751;29;20049;-79
2022/02/22 04:08:18;;;;;;;18.08;2.05;;;;;;;-141.50;100.00;63355.56;4930483;29;20064;-77
2022/02/22 04:10:45;;;;;;;20.90;2.88;;;;;;;-141.50;100.00;63355.56;4930104;29;20056;-77
2022/02/22 04:13:12;;;;;;;16.85;2.20;;;;;;;-141.50;100.00;63355.56;4932321;29;20055;-80
2022/02/22 04:15:39;;;;;;;22.00;1.92;;;;;;;-141.50;100.00;63355.56;4937262;29;20052;-78
2022/02/22 04:18:06;;;;;;;28.40;2.47;;;;;;;-141.50;100.00;63355.56;4938547;29;20083;-78
2022/02/22 04:20:33;;;;;;;24.88;3.75;;;;;;;-141.50;100.00;63355.56;4935675;29;20068;-80
2022/02/22 04:23:00;;;;;;;27.38;3.58;;;;;;;-141.50;100.00;63355.56;4936466;29;20087;-80
2022/02/22 04:25:26;;;;;;;27.38;2.80;;;;;;;-141.50;100.00;63355.56;4933979;29;20151;-80
2022/02/22 04:27:53;;;;;;;26.20;2.38;;;;;;;-141.50;100.00;63355.56;4935491;29;20113;-78
2022/02/22 04:30:20;;;;;;;28.63;2.90;;;;;;;-141.50;100.00;63355.56;4932289;29;20071;-77
2022/02/22 04:32:47;;;;;;;17.15;2.08;;;;;;;-141.50;100.00;63355.56;4935279;29;20058;-79
2022/02/22 04:35:14;;;;;;;25.63;3.00;;;;;;;-141.50;100.00;63355.56;4930343;29;20107;-78
2022/02/22 04:37:41;;;;;;;22.05;2.63;;;;;;;-141.50;100.00;63355.56;4928809;29;20052;-79
2022/02/22 04:40:08;;;;;;;19.85;2.17;;;;;;;-141.50;100.00;63355.56;4930145;29;20182;-80
2022/02/22 04:42:35;;;;;;;28.58;2.63;;;;;;;-141.50;100.00;63355.56;4933324;29;20048;-80
2022/02/22 04:45:02;;;;;;;25.30;3.25;;;;;;;-141.50;100.00;63355.56;4933692;29;20052;-79
2022/02/22 04:47:29;;;;;;;19.38;2.13;;;;;;;-141.50;100.00;63355.56;4932063;29;20052;-79
2022/02/22 04:49:56;;;;;;;20.77;2.47;;;;;;;-141.50;100.00;63355.56;4933052;29;20040;-77
2022/02/22 04:52:23;;;;;;;19.42;2.20;;;;;;;-141.50;100.00;63355.56;4928944;29;20052;-78
2022/02/22 04:54:49;;;;;;;18.23;1.90;;;;;;;-141.50;100.00;63355.56;4930882;29;20052;-80
2022/02/22 04:57:16;;;;;;;21.42;1.90;;;;;;;-141.50;100.00;63355.56;4935466;29;20087;-80
2022/02/22 04:59:43;;;;;;;15.43;1.90;;;;;;;-141.50;100.00;63355.56;4932708;29;20560;-77
2022/02/22 05:02:10;;;;;;;14.85;1.60;;;;;;;-141.50;100.00;63355.56;4934855;29;20063;-79
2022/02/22 05:04:37;;;;;;;11.20;1.35;;;;;;;-141.50;100.00;63355.56;4934627;29;20036;-78
2022/02/22 05:07:04;;;;;;;14.68;1.77;;;;;;;-141.50;100.00;63355.56;4935427;29;20116;-79
2022/02/22 05:09:31;;;;;;;14.25;1.77;;;;;;;-141.50;100.00;63355.56;4932317;29;20072;-77
2022/02/22 05:12:00;;;;;;;18.42;2.38;;;;;;;-141.50;100.00;63355.56;4933355;29;20052;-80
2022/02/22 05:14:27;;;;;;;19.90;1.77;;;;;;;-141.50;100.00;63355.56;4934429;29;20079;-79
2022/02/22 05:16:54;;;;;;;17.25;2.03;;;;;;;-141.50;100.00;63355.56;4932766;29;20060;-78
2022/02/22 05:19:21;;;;;;;20.60;2.28;;;;;;;-141.50;100.00;63355.56;4932456;29;20052;-79
2022/02/22 05:21:48;;;;;;;16.42;1.95;;;;;;;-141.50;100.00;63355.56;4933609;29;20120;-79
2022/02/22 05:24:14;;;;;;;18.75;1.65;;;;;;;-141.50;100.00;63355.56;4934195;29;20671;-81
2022/02/22 05:26:41;;;;;;;18.15;1.80;;;;;;;-141.50;100.00;63355.56;4932384;29;20054;-79
2022/02/22 05:29:12;;;;;;;15.55;2.20;;;;;;;-141.50;100.00;63355.56;4933174;29;20054;-79
2022/02/22 05:31:40;;;;;;;18.02;2.15;;;;;;;-141.50;100.00;63355.56;4933104;29;20084;-79
2022/02/22 05:34:06;;;;;;;20.60;2.50;;;;;;;-141.50;100.00;63355.56;4933431;29;20043;-78
2022/02/22 05:36:33;;;;;;;20.70;2.40;;;;;;;-141.50;100.00;63355.56;4933283;29;20052;-79
2022/02/22 05:39:00;;;;;;;30.25;2.63;;;;;;;-141.50;100.00;63355.56;4933897;29;20056;-79
2022/02/22 05:41:32;;;;;;;16.77;2.28;;;;;;;-141.50;100.00;63355.56;4931541;29;20079;-78
2022/02/22 05:43:59;;;;;;;21.35;2.90;;;;;;;-141.50;100.00;63355.56;4932597;29;20095;-78
2022/02/22 05:46:27;;;;;;;28.42;2.83;;;;;;;-141.50;100.00;63355.56;4929542;29;20041;-78
2022/02/22 05:48:53;;;;;;;27.25;3.10;;;;;;;-141.50;100.00;63355.56;4929246;29;20091;-78
2022/02/22 05:51:20;;;;;;;26.75;2.55;;;;;;;-141.50;100.00;63355.56;4927732;29;20154;-78
2022/02/22 05:53:48;;;;;;;33.42;3.53;;;;;;;-141.50;100.00;63355.56;4926295;29;20116;-78
2022/02/22 05:56:15;;;;;;;26.55;3.42;;;;;;;-141.50;100.00;63355.56;4923274;29;20057;-77
2022/02/22 05:58:42;;;;;;;26.67;2.67;;;;;;;-141.50;100.00;63355.56;4903537;29;20052;-78
2022/02/22 06:01:09;;;;;;;24.27;3.28;;;;;;;-141.50;100.00;63355.56;4923431;29;20079;-78
2022/02/22 06:03:35;;;;;;;27.90;2.85;;;;;;;-141.50;100.00;63355.56;4929654;29;20048;-79
2022/02/22 06:06:05;;;;;;;36.95;4.50;;;;;;;-141.50;100.00;63355.56;4928254;29;20064;-78
2022/02/22 06:08:32;;;;;;;33.15;3.78;;;;;;;-141.50;100.00;63355.56;4929855;29;20120;-77
2022/02/22 06:10:58;;;;;;;31.00;3.58;;;;;;;-141.50;100.00;63355.56;4927572;29;20109;-79
2022/02/22 06:13:25;;;;;;;33.05;3.38;;;;;;;-141.50;100.00;63355.56;4925469;29;20058;-79
2022/02/22 06:15:52;;;;;;;32.75;3.25;;;;;;;-141.50;100.00;63355.56;4925493;29;20044;-78
2022/02/22 06:18:19;;;;;;;29.42;3.20;;;;;;;-141.50;100.00;63355.56;4924882;29;20056;-77
2022/02/22 06:20:47;;;;;;;26.08;3.38;;;;;;;-141.50;100.00;63355.56;4924200;29;20071;-80
2022/02/22 06:23:13;;;;;;;24.75;3.38;;;;;;;-141.50;100.00;63355.56;4927084;29;20040;-79
2022/02/22 06:25:41;;;;;;;27.77;3.40;;;;;;;-141.50;100.00;63355.56;4923642;29;20052;-79
2022/02/22 06:28:08;;;;;;;24.80;3.38;;;;;;;-141.50;100.00;63355.56;4924094;29;20084;-78
2022/02/22 06:30:35;;;;;;;31.33;4.03;;;;;;;-141.50;100.00;63355.56;4924349;29;20052;-79
2022/02/22 06:33:03;;;;;;;38.42;3.80;;;;;;;-141.50;100.00;63355.56;4925937;29;20059;-78
2022/02/22 06:35:29;;;;;;;35.83;3.25;;;;;;;-141.50;100.00;63355.56;4926785;29;20052;-79
2022/02/22 06:37:56;;;;;;;34.17;3.63;;;;;;;-141.50;100.00;63355.56;4925757;29;20044;-78
2022/02/22 06:40:25;;;;;;;30.77;3.40;;;;;;;-141.50;100.00;63355.56;4926625;29;20060;-79
2022/02/22 06:42:52;;;;;;;35.53;4.22;;;;;;;-141.50;100.00;63355.56;4930434;29;20059;-79
2022/02/22 06:45:19;;;;;;;28.65;3.55;;;;;;;-141.50;100.00;63355.56;4924211;29;20112;-78
2022/02/22 06:47:46;;;;;;;28.75;3.00;;;;;;;-141.50;100.00;63355.56;4926496;29;20091;-79
2022/02/22 06:50:13;;;;;;;22.70;2.78;;;;;;;-141.50;100.00;63355.56;4922775;29;20080;-78
2022/02/22 06:52:41;;;;;;;33.33;3.78;;;;;;;-141.50;100.00;63355.56;4922101;29;20090;-77
2022/02/22 06:55:12;;;;;;;26.63;3.35;;;;;;;-141.50;100.00;63355.56;4926322;29;20048;-77
2022/02/22 06:57:40;;;;;;;26.58;3.13;;;;;;;-141.50;100.00;63355.56;4925616;29;20215;-79
2022/02/22 07:00:09;;;;;;;21.25;3.22;;;;;;;-141.50;100.00;63355.56;4922932;29;20052;-78
2022/02/22 07:02:38;;;;;;;20.45;3.10;;;;;;;-141.50;100.00;63355.56;4924728;29;20063;-78
2022/02/22 07:05:06;;;;;;;20.33;2.67;;;;;;;-141.50;100.00;63355.56;4923011;29;20048;-78
2022/02/22 07:07:33;;;;;;;20.95;3.20;;;;;;;-141.50;100.00;63355.56;4921681;29;20052;-78
2022/02/22 07:10:01;;;;;;;30.40;3.13;;;;;;;-141.50;100.00;63355.56;4924447;29;20056;-77
2022/02/22 07:12:28;;;;;;;23.90;2.83;;;;;;;-141.50;100.00;63355.56;4922789;29;20059;-78
2022/02/22 07:14:54;;;;;;;22.85;3.38;;;;;;;-141.50;100.00;63355.56;4924382;29;20131;-78
2022/02/22 07:17:21;;;;;;;26.70;2.95;;;;;;;-141.50;100.00;63355.56;4928658;29;20047;-78
2022/02/22 07:19:48;;;;;;;22.95;2.72;;;;;;;-141.50;100.00;63355.56;4925136;29;20385;-78
2022/02/22 07:22:15;;;;;;;23.23;3.03;;;;;;;-141.50;100.00;63355.56;4925213;29;20087;-77
2022/02/22 07:24:42;;;;;;;20.80;2.38;;;;;;;-141.50;100.00;63355.56;4926505;29;20059;-77
2022/02/22 07:27:09;;;;;;;18.98;3.55;;;;;;;-141.50;100.00;63355.56;4923868;29;20356;-79
2022/02/22 07:29:38;;;;;;;20.10;2.72;;;;;;;-141.50;100.00;63355.56;4925648;29;20060;-78
2022/02/22 07:32:05;;;;;;;17.80;3.05;;;;;;;-141.50;100.00;63355.56;4927878;29;20060;-78
2022/02/22 07:34:32;;;;;;;18.65;3.05;;;;;;;-141.50;100.00;63355.56;4929162;29;20096;-78
2022/02/22 07:36:59;;;;;;;13.32;2.58;;;;;;;-141.50;100.00;63355.56;4928320;29;20059;-78
2022/02/22 07:39:26;;;;;;;21.45;2.92;;;;;;;-141.50;100.00;63355.56;4927053;29;20067;-79
2022/02/22 07:41:53;;;;;;;17.52;3.00;;;;;;;-141.50;100.00;63355.56;4923657;29;20106;-77
2022/02/22 07:44:20;;;;;;;28.42;3.15;;;;;;;-141.50;100.00;63355.56;4925965;29;20052;-78
2022/02/22 07:46:47;;;;;;;21.15;2.60;;;;;;;-141.50;100.00;63355.56;4925614;29;20105;-79
2022/02/22 07:49:13;;;;;;;20.67;2.90;;;;;;;-141.50;100.00;63355.56;4928715;29;20048;-78
2022/02/22 07:51:40;;;;;;;15.80;2.20;;;;;;;-141.50;100.00;63355.56;4927419;29;20132;-79
2022/02/22 07:54:07;;;;;;;17.35;3.03;;;;;;;-141.50;100.00;63355.56;4928866;29;20052;-77
2022/02/22 07:56:34;;;;;;;14.48;2.03;;;;;;;-141.50;100.00;63355.56;4923787;29;20040;-79
2022/02/22 07:59:01;;;;;;;20.10;2.67;;;;;;;-141.50;100.00;63355.56;4929186;29;20063;-79
2022/02/22 08:01:27;;;;;;;18.98;2.55;;;;;;;-141.50;100.00;63355.56;4926621;29;20056;-78
2022/02/22 08:03:54;;;;;;;24.83;3.47;;;;;;;-141.50;100.00;63355.56;4926892;29;20250;-77
2022/02/22 08:06:21;;;;;;;21.63;2.45;;;;;;;-141.50;100.00;63355.56;4923600;29;20056;-78
2022/02/22 08:08:48;;;;;;;21.00;2.85;;;;;;;-141.50;100.00;63355.56;4927465;29;20116;-78
2022/02/22 08:11:15;;;;;;;26.45;2.45;;;;;;;-141.50;100.00;63355.56;4929619;29;20293;-78
2022/02/22 08:13:42;;;;;;;23.13;2.67;;;;;;;-141.50;100.00;63355.56;4924903;29;20124;-79
2022/02/22 08:16:08;;;;;;;22.27;3.10;;;;;;;-141.50;100.00;63355.56;4927524;29;20048;-78
2022/02/22 08:18:35;;;;;;;21.90;3.45;;;;;;;-141.50;100.00;63355.56;4928323;29;20083;-78
2022/02/22 08:21:03;;;;;;;32.42;4.15;;;;;;;-141.50;100.00;63355.56;4925298;29;20044;-78
2022/02/22 08:23:31;;;;;;;21.85;3.03;;;;;;;-141.50;100.00;63355.56;4926844;29;20075;-79
2022/02/22 08:26:00;;;;;;;29.23;3.47;;;;;;;-141.50;100.00;63355.56;4921264;29;20337;-79
2022/02/22 08:28:27;;;;;;;27.90;3.72;;;;;;;-141.50;100.00;63355.56;4924379;29;20166;-77
2022/02/22 08:30:54;;;;;;;26.73;3.63;;;;;;;-141.50;100.00;63355.56;4919428;29;20134;-77
2022/02/22 08:33:21;;;;;;;31.65;3.55;;;;;;;-141.50;100.00;63355.56;4923153;29;20052;-77
2022/02/22 08:35:48;;;;;;;22.60;3.15;;;;;;;-141.50;100.00;63355.56;4923614;29;20048;-78
2022/02/22 08:38:16;;;;;;;28.00;3.03;;;;;;;-141.50;100.00;63355.56;4904822;29;20064;-79
2022/02/22 08:40:44;;;;;;;20.85;3.78;;;;;;;-141.50;100.00;63355.56;4919722;29;20054;-77
2022/02/22 08:43:11;;;;;;;21.17;2.97;;;;;;;-141.50;100.00;63355.56;4919927;29;20416;-78
2022/02/22 08:45:38;;;;;;;20.98;3.40;;;;;;;-141.50;100.00;63355.56;4918731;29;20056;-77
2022/02/22 08:48:05;;;;;;;25.10;3.25;;;;;;;-141.50;100.00;63355.56;4920454;29;20425;-77
2022/02/22 08:50:32;;;;;;;26.80;4.50;;;;;;;-141.50;100.00;63355.56;4917687;29;20120;-76
2022/02/22 08:52:59;;;;;;;29.70;3.75;;;;;;;-141.50;100.00;63355.56;4919904;29;20220;-76
2022/02/22 08:55:28;;;;;;;27.50;3.03;;;;;;;-141.50;100.00;63355.56;4925392;29;20072;-79
2022/02/22 08:57:58;;;;;;;21.10;3.53;;;;;;;-141.50;100.00;63355.56;4920958;29;20079;-75
2022/02/22 09:00:27;;;;;;;27.52;3.40;;;;;;;-141.50;100.00;63355.56;4915746;29;20044;-76
2022/02/22 09:02:57;;;;;;;32.80;3.58;;;;;;;-141.50;100.00;63355.56;4917417;29;20417;-77
2022/02/22 09:05:26;;;;;;;26.33;4.05;;;;;;;-141.50;100.00;63355.56;4918793;29;20121;-79
2022/02/22 09:07:56;;;;;;;21.73;4.22;;;;;;;-141.50;100.00;63355.56;4916346;29;20056;-78
2022/02/22 09:10:23;;;;;;;24.95;4.00;;;;;;;-141.50;100.00;63355.56;4917004;29;20151;-76
2022/02/22 09:12:51;;;;;;;34.95;3.78;;;;;;;-141.50;100.00;63355.56;4914823;29;20071;-79
2022/02/22 09:15:20;;;;;;;34.45;3.47;;;;;;;-141.50;100.00;63355.56;4915981;29;20056;-77
2022/02/22 09:17:50;;;;;;;27.05;4.00;;;;;;;-141.50;100.00;63355.56;4917792;29;20122;-79
2022/02/22 09:20:19;;;;;;;28.95;3.85;;;;;;;-141.50;100.00;63355.56;4917039;29;20094;-78
2022/02/22 09:22:46;;;;;;;21.30;3.67;;;;;;;-141.50;100.00;63355.56;4915589;29;20052;-77
2022/02/22 09:25:15;;;;;;;35.10;4.30;;;;;;;-141.50;100.00;63355.56;4915392;29;20151;-77
2022/02/22 09:27:43;;;;;;;26.83;3.88;;;;;;;-141.50;100.00;63355.56;4914763;29;20369;-77
2022/02/22 09:30:13;;;;;;;37.08;4.53;;;;;;;-141.50;100.00;63355.56;4915046;29;20125;-77
2022/02/22 09:32:45;;;;;;;28.80;3.78;;;;;;;-141.50;100.00;63355.56;4918075;29;20154;-76
2022/02/22 09:35:14;;;;;;;30.25;4.13;;;;;;;-141.50;100.00;63355.56;4916067;29;20093;-77
2022/02/22 09:37:41;;;;;;;24.88;3.28;;;;;;;-141.50;100.00;63355.56;4914717;29;20064;-77
2022/02/22 09:40:12;;;;;;;24.65;3.80;;;;;;;-141.50;100.00;63355.56;4915467;29;20095;-77
2022/02/22 09:42:40;;;;;;;36.00;5.32;;;;;;;-141.50;100.00;63355.56;4917123;29;20120;-78
2022/02/22 09:45:10;;;;;;;35.13;4.65;;;;;;;-141.50;100.00;63355.56;4916490;29;20066;-77
2022/02/22 09:47:38;;;;;;;28.05;4.10;;;;;;;-141.50;100.00;63355.56;4916633;29;20517;-78
2022/02/22 09:50:06;;;;;;;27.73;3.40;;;;;;;-141.50;100.00;63355.56;4918336;29;20052;-80
2022/02/22 09:52:33;;;;;;;30.90;3.67;;;;;;;-141.50;100.00;63355.56;4899047;29;20412;-78
2022/02/22 09:55:01;;;;;;;23.00;3.50;;;;;;;-141.50;100.00;63355.56;4915485;29;20141;-77
2022/02/22 09:57:28;;;;;;;23.65;3.58;;;;;;;-141.50;100.00;63355.56;4917284;29;20131;-78
2022/02/22 09:59:55;;;;;;;23.10;2.80;;;;;;;-141.50;100.00;63355.56;4920728;29;20464;-77
2022/02/22 10:02:21;;;;;;;22.55;3.17;;;;;;;-141.50;100.00;63355.56;4928210;29;20055;-78
2022/02/22 10:04:50;;;;;;;30.80;3.53;;;;;;;-141.50;100.00;63355.56;4928155;29;20071;-78
2022/02/22 10:07:18;;;;;;;36.67;4.30;;;;;;;-141.50;100.00;63355.56;4921778;29;20056;-78
2022/02/22 10:09:59;;;;;;;20.63;3.17;;;;;;;-141.50;100.00;63355.56;4920635;29;20469;-77
2022/02/22 10:12:28;;;;;;;16.73;3.10;;;;;;;-141.50;100.00;63355.56;4920028;29;20040;-79
2022/02/22 10:14:57;;;;;;;26.27;3.60;;;;;;;-141.50;100.00;63355.56;4915593;29;20052;-76
2022/02/22 10:17:25;;;;;;;16.98;2.63;;;;;;;-141.50;100.00;63355.56;4914897;29;20055;-76
2022/02/22 10:20:03;;;;;;;19.98;3.17;;;;;;;-141.50;100.00;63355.56;4913806;29;20123;-77
2022/02/22 10:22:32;;;;;;;21.52;3.20;;;;;;;-141.50;100.00;63355.56;4914641;29;20064;-77
2022/02/22 10:25:04;;;;;;;22.92;3.42;;;;;;;-141.50;100.00;63355.56;4913675;29;20083;-78
2022/02/22 10:27:45;;;;;;;18.88;3.00;;;;;;;-141.50;100.00;63355.56;4912078;29;20054;-76
2022/02/22 10:30:31;;;;;;;19.13;2.80;;;;;;;-141.50;100.00;63355.56;4910770;29;20563;-77
2022/02/22 10:32:58;;;;;;;23.23;3.90;;;;;;;-141.50;100.00;63355.56;4914385;29;20044;-77
2022/02/22 10:35:30;;;;;;;22.65;2.85;;;;;;;-141.50;100.00;63355.56;4916318;29;20052;-77
2022/02/22 10:37:58;;;;;;;28.08;3.63;;;;;;;-141.50;100.00;63355.56;4923230;29;20048;-78
2022/02/22 10:40:29;;;;;;;25.35;3.22;;;;;;;-141.50;100.00;63355.56;4922961;29;20131;-79
2022/02/22 10:42:57;;;;;;;21.30;2.83;;;;;;;-141.50;100.00;63355.56;4922836;29;20196;-77
2022/02/22 10:45:26;;;;;;;19.05;2.70;;;;;;;-141.50;100.00;63355.56;4919809;29;20135;-76
2022/02/22 10:47:55;;;;;;;28.98;3.78;;;;;;;-141.50;100.00;63355.56;4923221;29;20036;-76
2022/02/22 10:50:25;;;;;;;23.60;3.88;;;;;;;-141.50;100.00;63355.56;4923968;29;20063;-78
2022/02/22 10:52:52;;;;;;;26.15;3.15;;;;;;;-141.50;100.00;63355.56;4920128;29;20060;-79
2022/02/22 10:55:19;;;;;;;36.55;3.67;;;;;;;-141.50;100.00;63355.56;4921504;29;20048;-79
2022/02/22 10:57:48;;;;;;;16.63;3.33;;;;;;;-141.50;100.00;63355.56;4920496;29;20152;-77
2022/02/22 11:00:17;;;;;;;28.20;3.33;;;;;;;-141.50;100.00;63355.56;4920625;29;20064;-76
2022/02/22 11:02:45;;;;;;;26.27;3.60;;;;;;;-141.50;100.00;63355.56;4922812;29;20107;-77
2022/02/22 11:05:32;;;;;;;24.73;3.60;;;;;;;-141.50;100.00;63355.56;4921208;29;20051;-78